createdAt,value
2018-08-03T00:01:33.270Z,11.43
2018-08-03T00:04:05.462Z,10.23
2018-08-03T00:06:35.490Z,10.53
2018-08-03T00:09:09.112Z,10.43
2018-08-03T00:11:41.118Z,11.27
2018-08-03T00:14:11.494Z,10.80
2018-08-03T00:16:42.622Z,10.23
2018-08-03T00:19:12.275Z,9.70
2018-08-03T00:21:43.962Z,10.27
2018-08-03T00:24:15.778Z,9.60
2018-08-03T00:26:47.148Z,10.97
2018-08-03T00:29:16.995Z,10.40
2018-08-03T00:31:47.701Z,10.30
2018-08-03T00:34:22.761Z,10.80
2018-08-03T00:37:04.054Z,10.80
2018-08-03T00:39:43.298Z,9.37
2018-08-03T00:42:20.158Z,10.33
2018-08-03T00:45:04.026Z,11.80
2018-08-03T00:50:18.278Z,10.90
2018-08-03T00:52:54.662Z,11.20
2018-08-03T00:58:10.186Z,11.20
2018-08-03T01:00:55.230Z,11.63
2018-08-03T01:03:33.646Z,12.13
2018-08-03T01:06:14.006Z,11.50
2018-08-03T01:11:27.037Z,11.90
2018-08-03T01:13:58.130Z,13.23
2018-08-03T01:16:29.003Z,13.30
2018-08-03T01:19:03.287Z,12.23
2018-08-03T01:21:44.870Z,13.20
2018-08-03T01:24:26.739Z,13.00
2018-08-03T01:27:14.266Z,13.60
2018-08-03T01:29:53.690Z,14.27
2018-08-03T01:32:23.714Z,13.63
2018-08-03T01:34:55.405Z,13.30
2018-08-03T01:37:25.018Z,12.87
2018-08-03T01:39:55.166Z,14.47
2018-08-03T01:42:27.570Z,13.80
2018-08-03T01:44:57.458Z,12.60
2018-08-03T01:47:27.338Z,14.40
2018-08-03T01:49:58.368Z,12.83
2018-08-03T01:52:29.266Z,13.50
2018-08-03T01:55:00.318Z,14.50
2018-08-03T01:57:34.342Z,14.40
2018-08-03T02:00:06.690Z,16.10
2018-08-03T02:02:38.765Z,17.30
2018-08-03T02:05:08.618Z,16.50
2018-08-03T02:07:39.014Z,14.07
2018-08-03T02:10:12.542Z,14.13
2018-08-03T02:12:43.938Z,14.53
2018-08-03T02:18:05.760Z,13.83
2018-08-03T02:20:35.824Z,14.40
2018-08-03T02:23:12.374Z,15.07
2018-08-03T02:25:42.478Z,14.07
2018-08-03T02:28:12.738Z,14.13
2018-08-03T02:30:45.694Z,14.17
2018-08-03T02:33:16.957Z,13.07
2018-08-03T02:35:48.442Z,14.30
2018-08-03T02:38:24.485Z,14.87
2018-08-03T02:40:59.865Z,14.60
2018-08-03T02:43:32.306Z,14.47
2018-08-03T02:46:02.138Z,14.10
2018-08-03T02:48:36.006Z,14.53
2018-08-03T02:51:07.894Z,15.03
2018-08-03T02:53:40.038Z,15.20
2018-08-03T02:56:15.456Z,15.97
2018-08-03T02:58:45.405Z,15.77
2018-08-03T03:01:21.497Z,17.57
2018-08-03T03:03:52.170Z,16.53
2018-08-03T03:06:22.556Z,16.30
2018-08-03T03:08:52.634Z,17.43
2018-08-03T03:11:23.809Z,15.67
2018-08-03T03:13:56.718Z,17.30
2018-08-03T03:16:28.523Z,15.53
2018-08-03T03:18:59.493Z,16.77
2018-08-03T03:21:31.382Z,16.77
2018-08-03T03:24:01.846Z,17.40
2018-08-03T03:26:32.449Z,17.47
2018-08-03T03:29:08.089Z,17.60
2018-08-03T03:31:44.775Z,18.30
2018-08-03T03:34:19.338Z,17.90
2018-08-03T03:36:49.430Z,18.90
2018-08-03T03:39:20.509Z,19.23
2018-08-03T03:41:51.469Z,19.30
2018-08-03T03:44:26.062Z,17.67
2018-08-03T03:46:57.753Z,19.50
2018-08-03T03:49:27.505Z,18.70
2018-08-03T03:52:01.343Z,19.50
2018-08-03T03:54:33.362Z,20.00
2018-08-03T03:57:19.530Z,19.50
2018-08-03T03:59:53.789Z,18.97
2018-08-03T04:02:26.579Z,19.73
2018-08-03T04:04:58.137Z,18.07
2018-08-03T04:07:29.049Z,18.97
2018-08-03T04:10:02.241Z,18.80
2018-08-03T04:12:32.122Z,17.83
2018-08-03T04:15:02.039Z,17.47
2018-08-03T04:17:32.897Z,18.07
2018-08-03T04:20:02.633Z,18.77
2018-08-03T04:22:32.258Z,18.40
2018-08-03T04:25:01.975Z,18.63
2018-08-03T04:27:31.961Z,20.50
2018-08-03T04:30:07.042Z,18.70
2018-08-03T04:32:38.960Z,19.17
2018-08-03T04:35:08.929Z,18.77
2018-08-03T04:37:40.553Z,17.90
2018-08-03T04:40:17.701Z,18.83
2018-08-03T04:42:48.609Z,19.30
2018-08-03T04:45:18.217Z,18.90
2018-08-03T04:47:48.081Z,18.03
2018-08-03T04:50:17.992Z,17.00
2018-08-03T04:52:48.986Z,16.23
2018-08-03T04:55:18.902Z,16.00
2018-08-03T04:57:49.589Z,16.40
2018-08-03T05:00:24.033Z,18.00
2018-08-03T05:02:56.024Z,16.13
2018-08-03T05:05:25.629Z,16.07
2018-08-03T05:07:57.465Z,17.53
2018-08-03T05:10:27.057Z,16.30
2018-08-03T05:12:56.605Z,16.93
2018-08-03T05:15:26.236Z,16.70
2018-08-03T05:17:55.773Z,18.10
2018-08-03T05:20:25.294Z,15.87
2018-08-03T05:22:55.084Z,15.53
2018-08-03T05:25:24.794Z,16.13
2018-08-03T05:27:58.019Z,13.93
2018-08-03T05:30:30.058Z,17.00
2018-08-03T05:33:01.117Z,15.50
2018-08-03T05:35:34.133Z,15.50
2018-08-03T05:38:05.689Z,15.33
2018-08-03T05:40:35.549Z,13.37
2018-08-03T05:43:06.421Z,12.70
2018-08-03T05:45:37.260Z,13.67
2018-08-03T05:48:07.021Z,12.57
2018-08-03T05:50:38.952Z,12.50
2018-08-03T05:53:09.845Z,12.50
2018-08-03T05:55:39.585Z,10.97
2018-08-03T05:58:09.357Z,11.20
2018-08-03T06:00:43.496Z,11.03
2018-08-03T06:03:13.117Z,9.30
2018-08-03T06:05:43.971Z,11.23
2018-08-03T06:08:15.673Z,10.27
2018-08-03T06:10:45.465Z,11.00
2018-08-03T06:13:15.315Z,10.20
2018-08-03T06:15:45.137Z,9.90
2018-08-03T06:18:19.029Z,9.67
2018-08-03T06:20:48.936Z,9.87
2018-08-03T06:23:19.821Z,9.30
2018-08-03T06:25:50.758Z,8.80
2018-08-03T06:28:20.492Z,8.77
2018-08-03T06:30:53.713Z,8.30
2018-08-03T06:33:24.348Z,8.93
2018-08-03T06:35:54.404Z,9.67
2018-08-03T06:38:23.981Z,8.60
2018-08-03T06:40:55.549Z,9.03
2018-08-03T06:43:25.209Z,9.30
2018-08-03T06:45:56.009Z,9.77
2018-08-03T06:48:25.713Z,9.17
2018-08-03T06:50:55.529Z,8.17
2018-08-03T06:53:25.189Z,8.57
2018-08-03T06:55:56.133Z,8.77
2018-08-03T06:58:25.714Z,8.87
2018-08-03T07:00:57.736Z,9.27
2018-08-03T07:03:33.341Z,8.10
2018-08-03T07:06:04.145Z,8.90
2018-08-03T07:08:34.777Z,8.97
2018-08-03T07:11:04.565Z,8.83
2018-08-03T07:13:35.365Z,9.37
2018-08-03T07:16:05.217Z,8.30
2018-08-03T07:18:37.122Z,7.50
2018-08-03T07:21:07.033Z,8.37
2018-08-03T07:23:36.951Z,8.80
2018-08-03T07:26:07.902Z,8.37
2018-08-03T07:28:38.041Z,8.60
2018-08-03T07:31:08.825Z,8.30
2018-08-03T07:33:39.617Z,7.33
2018-08-03T07:36:09.569Z,7.77
2018-08-03T07:38:43.365Z,8.33
2018-08-03T07:41:13.397Z,9.07
2018-08-03T07:43:43.265Z,8.23
2018-08-03T07:46:13.212Z,8.70
2018-08-03T07:48:47.900Z,8.57
2018-08-03T07:51:18.608Z,7.87
2018-08-03T07:53:48.345Z,8.33
2018-08-03T07:56:18.253Z,8.67
2018-08-03T07:58:56.336Z,8.40
2018-08-03T08:01:25.873Z,8.33
2018-08-03T08:03:55.517Z,7.93
2018-08-03T08:06:25.050Z,8.90
2018-08-03T08:08:54.780Z,8.13
2018-08-03T08:11:24.345Z,8.13
2018-08-03T08:13:55.048Z,8.53
2018-08-03T08:16:24.717Z,8.80
2018-08-03T08:18:54.193Z,8.70
2018-08-03T08:21:23.937Z,7.70
2018-08-03T08:23:53.540Z,7.40
2018-08-03T08:26:24.253Z,8.17
2018-08-03T08:28:54.085Z,7.10
2018-08-03T08:31:23.736Z,8.10
2018-08-03T08:34:05.846Z,7.00
2018-08-03T08:36:40.543Z,7.23
2018-08-03T08:39:13.197Z,7.23
2018-08-03T08:41:45.045Z,6.70
2018-08-03T08:44:15.861Z,8.10
2018-08-03T08:46:49.092Z,7.80
2018-08-03T08:49:22.505Z,8.10
2018-08-03T08:51:52.285Z,7.40
2018-08-03T08:54:24.107Z,8.47
2018-08-03T08:56:59.521Z,7.90
2018-08-03T08:59:29.496Z,7.50
2018-08-03T09:02:03.000Z,6.90
2018-08-03T09:04:45.057Z,7.57
2018-08-03T09:07:22.991Z,8.00
2018-08-03T09:09:58.066Z,6.37
2018-08-03T09:12:27.950Z,6.70
2018-08-03T09:14:57.746Z,6.87
2018-08-03T09:17:27.577Z,6.87
2018-08-03T09:20:00.468Z,7.97
2018-08-03T09:22:30.276Z,7.90
2018-08-03T09:25:00.042Z,8.17
2018-08-03T09:27:30.874Z,6.80
2018-08-03T09:30:03.957Z,7.23
2018-08-03T09:32:33.850Z,6.70
2018-08-03T09:35:03.678Z,6.20
2018-08-03T09:37:34.517Z,6.47
2018-08-03T09:40:05.777Z,7.90
2018-08-03T09:42:37.630Z,7.17
2018-08-03T09:45:07.489Z,6.63
2018-08-03T09:47:37.267Z,7.57
2018-08-03T09:50:08.858Z,6.90
2018-08-03T09:52:41.485Z,7.73
2018-08-03T09:55:12.356Z,7.40
2018-08-03T09:57:43.010Z,8.23
2018-08-03T10:00:16.158Z,7.50
2018-08-03T10:02:46.941Z,7.07
2018-08-03T10:05:16.765Z,6.93
2018-08-03T10:07:46.662Z,6.93
2018-08-03T10:10:20.034Z,7.47
2018-08-03T10:12:53.846Z,6.77
2018-08-03T10:15:26.356Z,6.90
2018-08-03T10:17:59.833Z,7.10
2018-08-03T10:20:30.757Z,7.67
2018-08-03T10:23:04.065Z,6.77
2018-08-03T10:25:39.261Z,7.23
2018-08-03T10:28:09.817Z,6.90
2018-08-03T10:30:50.845Z,6.97
2018-08-03T10:33:24.345Z,6.90
2018-08-03T10:35:55.158Z,6.90
2018-08-03T10:38:25.795Z,7.40
2018-08-03T10:41:21.720Z,7.07
2018-08-03T10:43:51.581Z,7.07
2018-08-03T10:46:23.403Z,8.07
2018-08-03T10:48:53.073Z,17.10
2018-08-03T10:51:24.011Z,7.70
2018-08-03T10:54:01.845Z,7.37
2018-08-03T10:56:33.589Z,6.10
2018-08-03T10:59:04.232Z,7.40
2018-08-03T11:01:34.050Z,6.73
2018-08-03T11:04:08.873Z,7.03
2018-08-03T11:06:38.870Z,7.53
2018-08-03T11:09:11.008Z,6.67
2018-08-03T11:11:41.661Z,7.40
2018-08-03T11:14:11.608Z,7.63
2018-08-03T11:16:53.097Z,7.20
2018-08-03T11:19:24.525Z,7.50
2018-08-03T11:21:55.684Z,7.77
2018-08-03T11:24:25.487Z,6.90
2018-08-03T11:26:57.415Z,7.80
2018-08-03T11:29:28.293Z,7.70
2018-08-03T11:31:58.789Z,6.77
2018-08-03T11:34:32.717Z,7.93
2018-08-03T11:37:04.521Z,7.43
2018-08-03T11:39:34.313Z,8.10
2018-08-03T11:42:03.961Z,8.53
2018-08-03T11:44:33.657Z,8.67
2018-08-03T11:47:03.545Z,8.17
2018-08-03T11:49:33.469Z,8.10
2018-08-03T11:52:06.533Z,7.93
2018-08-03T11:54:36.451Z,8.37
2018-08-03T11:57:07.017Z,8.10
2018-08-03T11:59:36.705Z,8.70
2018-08-03T12:02:08.621Z,8.33
2018-08-03T12:04:42.900Z,7.87
2018-08-03T12:07:13.388Z,8.17
2018-08-03T12:09:43.204Z,8.97
2018-08-03T12:12:14.021Z,8.33
2018-08-03T12:14:45.605Z,8.90
2018-08-03T12:17:17.347Z,8.00
2018-08-03T12:19:49.049Z,7.37
2018-08-03T12:22:22.085Z,8.20
2018-08-03T12:24:53.003Z,7.13
2018-08-03T12:27:22.789Z,6.73
2018-08-03T12:29:52.614Z,7.30
2018-08-03T12:32:23.513Z,7.50
2018-08-03T12:34:53.309Z,7.20
2018-08-03T12:37:22.912Z,7.10
2018-08-03T12:39:52.836Z,7.10
2018-08-03T12:42:22.834Z,6.83
2018-08-03T12:44:52.777Z,7.00
2018-08-03T12:47:23.615Z,7.30
2018-08-03T12:49:53.444Z,7.13
2018-08-03T12:52:23.052Z,7.30
2018-08-03T12:54:54.849Z,6.83
2018-08-03T12:57:24.433Z,6.63
2018-08-03T12:59:54.190Z,6.93
2018-08-03T13:02:23.685Z,6.40
2018-08-03T13:04:55.366Z,7.17
2018-08-03T13:07:24.985Z,6.50
2018-08-03T13:10:04.737Z,6.50
2018-08-03T13:12:35.537Z,5.67
2018-08-03T13:15:08.385Z,5.97
2018-08-03T13:17:38.193Z,5.10
2018-08-03T13:20:08.997Z,5.83
2018-08-03T13:22:40.769Z,6.00
2018-08-03T13:25:10.661Z,5.73
2018-08-03T13:27:40.460Z,5.43
2018-08-03T13:30:10.010Z,6.20
2018-08-03T13:32:40.788Z,6.43
2018-08-03T13:35:14.457Z,5.20
2018-08-03T13:37:44.273Z,5.97
2018-08-03T13:40:20.741Z,6.30
2018-08-03T13:42:50.549Z,6.37
2018-08-03T13:45:21.089Z,5.57
2018-08-03T13:47:51.556Z,6.33
2018-08-03T13:50:21.279Z,6.63
2018-08-03T13:52:50.968Z,6.33
2018-08-03T13:55:20.722Z,5.43
2018-08-03T13:57:50.508Z,6.50
2018-08-03T14:00:20.101Z,6.33
2018-08-03T14:02:53.300Z,5.63
2018-08-03T14:05:32.317Z,6.40
2018-08-03T14:08:01.948Z,6.07
2018-08-03T14:10:31.689Z,5.93
2018-08-03T14:13:02.512Z,7.20
2018-08-03T14:15:32.413Z,5.40
2018-08-03T14:18:06.273Z,5.90
2018-08-03T14:20:36.196Z,6.20
2018-08-03T14:23:10.037Z,6.67
2018-08-03T14:25:43.061Z,7.23
2018-08-03T14:28:13.021Z,6.90
2018-08-03T14:30:55.216Z,7.10
2018-08-03T14:33:34.784Z,6.73
2018-08-03T14:36:04.473Z,7.10
2018-08-03T14:38:34.313Z,7.37
2018-08-03T14:41:12.243Z,7.60
2018-08-03T14:43:42.037Z,6.37
2018-08-03T14:46:11.832Z,6.47
2018-08-03T14:48:47.957Z,6.73
2018-08-03T14:51:17.608Z,6.53
2018-08-03T14:56:47.521Z,6.97
2018-08-03T14:59:17.928Z,8.53
2018-08-03T15:01:55.516Z,8.20
2018-08-03T15:04:25.196Z,7.33
2018-08-03T15:06:55.864Z,7.73
2018-08-03T15:09:27.676Z,6.30
2018-08-03T15:12:07.989Z,7.27
2018-08-03T15:14:39.668Z,7.20
2018-08-03T15:17:14.393Z,7.37
2018-08-03T15:19:47.711Z,7.00
2018-08-03T15:22:17.208Z,7.90
2018-08-03T15:24:46.718Z,7.77
2018-08-03T15:27:16.440Z,8.77
2018-08-03T15:29:45.996Z,8.10
2018-08-03T15:32:21.020Z,7.33
2018-08-03T15:34:51.772Z,7.07
2018-08-03T15:37:22.528Z,7.57
2018-08-03T15:39:53.369Z,6.93
2018-08-03T15:42:22.951Z,6.80
2018-08-03T15:44:53.789Z,6.37
2018-08-03T15:47:25.291Z,6.73
2018-08-03T15:50:11.833Z,6.97
2018-08-03T15:52:49.987Z,6.67
2018-08-03T15:55:25.220Z,6.60
2018-08-03T15:58:03.944Z,7.53
2018-08-03T16:00:33.729Z,6.50
2018-08-03T16:03:05.920Z,5.67
2018-08-03T16:05:35.757Z,5.93
2018-08-03T16:08:05.648Z,6.40
2018-08-03T16:10:35.452Z,6.00
2018-08-03T16:13:05.512Z,14.57
2018-08-03T16:15:35.385Z,6.20
2018-08-03T16:18:05.353Z,12.67
2018-08-03T16:20:35.192Z,14.40
2018-08-03T16:23:04.954Z,8.90
2018-08-03T16:25:34.885Z,14.60
2018-08-03T16:28:05.622Z,24.43
2018-08-03T16:46:05.292Z,8.20
2018-08-03T16:48:36.400Z,7.00
2018-08-03T16:51:10.200Z,8.30
2018-08-03T16:53:43.452Z,7.20
2018-08-03T16:56:13.052Z,8.03
2018-08-03T16:58:43.624Z,7.80
2018-08-03T17:01:14.220Z,7.17
2018-08-03T17:03:44.980Z,7.30
2018-08-03T17:06:21.484Z,6.77
2018-08-03T17:08:51.292Z,7.57
2018-08-03T17:11:20.892Z,8.40
2018-08-03T17:13:51.492Z,7.30
2018-08-03T17:16:21.337Z,7.80
2018-08-03T17:18:51.148Z,8.63
2018-08-03T17:21:20.756Z,8.50
2018-08-03T17:23:53.888Z,9.07
2018-08-03T17:26:30.140Z,9.00
2018-08-03T17:29:01.824Z,8.57
2018-08-03T17:31:31.896Z,9.33
2018-08-03T17:34:01.768Z,8.50
2018-08-03T17:36:31.420Z,8.43
2018-08-03T17:39:01.175Z,8.83
2018-08-03T17:41:32.132Z,10.57
2018-08-03T17:44:02.091Z,8.73
2018-08-03T17:46:32.084Z,9.70
2018-08-03T17:49:05.820Z,9.03
2018-08-03T17:51:35.476Z,8.23
2018-08-03T17:54:06.164Z,9.20
2018-08-03T17:56:35.724Z,9.60
2018-08-03T17:59:05.369Z,9.43
2018-08-03T18:01:35.160Z,9.50
2018-08-03T18:04:05.069Z,10.10
2018-08-03T18:06:40.168Z,9.60
2018-08-03T18:09:11.804Z,9.87
2018-08-03T18:11:45.128Z,9.83
2018-08-03T18:14:16.128Z,8.77
2018-08-03T18:16:46.812Z,9.30
2018-08-03T18:19:19.706Z,10.33
2018-08-03T18:21:49.691Z,9.57
2018-08-03T18:24:19.556Z,9.67
2018-08-03T18:26:51.292Z,9.87
2018-08-03T18:29:22.167Z,9.67
2018-08-03T18:31:52.145Z,9.13
2018-08-03T18:34:21.857Z,10.20
2018-08-03T18:36:53.397Z,8.50
2018-08-03T18:39:23.188Z,9.03
2018-08-03T18:41:54.678Z,8.90
2018-08-03T18:44:25.588Z,8.70
2018-08-03T18:46:56.592Z,9.60
2018-08-03T18:49:27.388Z,10.10
2018-08-03T18:52:00.505Z,9.67
2018-08-03T18:54:32.068Z,8.53
2018-08-03T18:57:02.559Z,7.80
2018-08-03T18:59:33.255Z,8.80
2018-08-03T19:02:04.336Z,8.60
2018-08-03T19:04:35.612Z,8.13
2018-08-03T19:07:07.584Z,8.43
2018-08-03T19:09:37.372Z,8.20
2018-08-03T19:12:07.040Z,7.97
2018-08-03T19:14:42.184Z,8.30
2018-08-03T19:17:16.884Z,7.47
2018-08-03T19:19:46.636Z,7.00
2018-08-03T19:22:21.169Z,8.10
2018-08-03T19:24:50.956Z,8.40
2018-08-03T19:27:21.620Z,8.33
2018-08-03T19:29:51.376Z,7.60
2018-08-03T19:32:21.061Z,7.33
2018-08-03T19:34:50.980Z,8.57
2018-08-03T19:37:20.650Z,7.97
2018-08-03T19:39:50.464Z,8.20
2018-08-03T19:42:21.420Z,8.00
2018-08-03T19:44:52.317Z,8.50
2018-08-03T19:47:21.884Z,8.13
2018-08-03T19:49:57.032Z,7.83
2018-08-03T19:52:26.969Z,8.03
2018-08-03T19:55:01.231Z,9.00
2018-08-03T19:57:32.116Z,8.10
2018-08-03T20:00:02.031Z,7.90
2018-08-03T20:02:32.844Z,7.37
2018-08-03T20:05:02.852Z,7.93
2018-08-03T20:07:33.605Z,7.60
2018-08-03T20:10:06.456Z,7.50
2018-08-03T20:12:40.665Z,7.43
2018-08-03T20:15:12.376Z,8.77
2018-08-03T20:17:42.157Z,8.17
2018-08-03T20:20:13.844Z,8.90
2018-08-03T20:22:44.648Z,8.23
2018-08-03T20:25:19.595Z,8.70
2018-08-03T20:27:49.480Z,9.07
2018-08-03T20:30:21.440Z,8.63
2018-08-03T20:32:51.232Z,9.17
2018-08-03T20:35:25.528Z,9.10
2018-08-03T20:37:55.338Z,9.13
2018-08-03T20:40:25.227Z,8.53
2018-08-03T20:43:01.551Z,9.27
2018-08-03T20:45:32.171Z,9.23
2018-08-03T20:48:02.994Z,8.70
2018-08-03T20:50:36.592Z,9.50
2018-08-03T20:53:10.991Z,8.90
2018-08-03T20:55:42.512Z,8.67
2018-08-03T20:58:12.372Z,9.33
2018-08-03T21:00:47.355Z,8.40
2018-08-03T21:03:17.890Z,9.43
2018-08-03T21:05:48.664Z,10.10
2018-08-03T21:08:18.520Z,8.53
2018-08-03T21:10:49.388Z,8.60
2018-08-03T21:13:19.163Z,9.80
2018-08-03T21:15:48.728Z,9.73
2018-08-03T21:18:18.323Z,9.93
2018-08-03T21:20:49.199Z,9.30
2018-08-03T21:23:20.040Z,9.13
2018-08-03T21:25:51.080Z,7.30
2018-08-03T21:28:20.623Z,9.03
2018-08-03T21:30:52.459Z,8.70
2018-08-03T21:33:25.796Z,8.00
2018-08-03T21:35:56.455Z,9.07
2018-08-03T21:38:26.151Z,8.80
2018-08-03T21:40:56.036Z,9.10
2018-08-03T21:43:26.827Z,9.20
2018-08-03T21:45:58.343Z,9.33
2018-08-03T21:48:29.155Z,8.50
2018-08-03T21:50:59.991Z,9.43
2018-08-03T21:53:29.892Z,10.97
2018-08-03T21:56:00.576Z,10.30
2018-08-03T21:58:31.464Z,10.00
2018-08-03T22:01:01.396Z,10.87
2018-08-03T22:03:31.276Z,10.47
2018-08-03T22:06:00.944Z,9.53
2018-08-03T22:08:30.684Z,10.80
2018-08-03T22:11:00.583Z,9.57
2018-08-03T22:13:30.992Z,9.37
2018-08-03T22:16:00.808Z,10.13
2018-08-03T22:18:34.684Z,9.97
2018-08-03T22:21:04.572Z,10.50
2018-08-03T22:23:35.392Z,10.40
2018-08-03T22:26:05.066Z,10.07
2018-08-03T22:28:38.251Z,11.20
2018-08-03T22:31:08.868Z,9.13
2018-08-03T22:33:38.683Z,10.70
2018-08-03T22:36:08.375Z,10.77
2018-08-03T22:38:38.210Z,9.07
2018-08-03T22:41:11.187Z,10.27
2018-08-03T22:43:46.328Z,12.10
2018-08-03T22:46:15.996Z,9.67
2018-08-03T22:48:52.311Z,10.83
2018-08-03T22:51:22.907Z,10.50
2018-08-03T22:53:54.219Z,10.90
2018-08-03T22:56:25.175Z,10.50
2018-08-03T22:58:57.023Z,10.40
2018-08-03T23:01:26.749Z,12.13
2018-08-03T23:03:58.318Z,11.60
2018-08-03T23:06:29.084Z,10.40
2018-08-03T23:09:02.958Z,10.50
2018-08-03T23:11:32.743Z,11.90
2018-08-03T23:14:02.600Z,10.17
2018-08-03T23:16:32.553Z,11.13
2018-08-03T23:19:02.367Z,10.80
2018-08-03T23:21:32.007Z,10.60
2018-08-03T23:24:01.839Z,11.40
2018-08-03T23:26:31.800Z,11.07
2018-08-03T23:29:03.382Z,12.00
2018-08-03T23:31:35.179Z,11.40
2018-08-03T23:34:05.832Z,11.97
2018-08-03T23:36:37.730Z,10.93
2018-08-03T23:39:08.054Z,11.90
2018-08-03T23:41:37.582Z,12.07
2018-08-03T23:44:08.371Z,11.43
2018-08-03T23:46:38.159Z,10.97
2018-08-03T23:49:09.090Z,11.00
2018-08-03T23:51:38.951Z,11.63
2018-08-03T23:54:08.570Z,12.80
2018-08-03T23:56:38.427Z,11.60
2018-08-03T23:59:12.755Z,12.50
